Time;durP1;ratioP1;P1;durP2;ratioP2;P2;SDS_P1;SDS_P2;PMS_P1;PMS_P2;Temp;Humidity;BMP_temperature;BMP_pressure;BME280_temperature;BME280_humidity;BME280_pressure;Samples;Min_cycle;Max_cycle;Signal;HPM_P1;HPM_P2
2021/01/28 00:01:06;;;;;;;6.10;5.47;;;25.50;46.80;;;;;;5055304;28;20089;-58
2021/01/28 00:03:33;;;;;;;6.07;5.47;;;25.50;46.80;;;;;;5055424;28;20600;-58
2021/01/28 00:06:00;;;;;;;7.60;5.90;;;25.40;46.70;;;;;;5073408;28;20066;-57
2021/01/28 00:08:26;;;;;;;8.38;6.78;;;25.40;46.70;;;;;;5054969;28;20450;-57
2021/01/28 00:10:52;;;;;;;8.18;7.38;;;25.40;46.80;;;;;;5071637;28;20054;-57
2021/01/28 00:13:18;;;;;;;9.50;7.90;;;25.40;46.80;;;;;;5053994;28;20037;-57
2021/01/28 00:15:44;;;;;;;31.90;28.70;;;25.40;46.80;;;;;;5052068;28;20056;-57
2021/01/28 00:18:12;;;;;;;28.23;25.42;;;25.40;46.80;;;;;;5055736;28;20033;-57
2021/01/28 00:20:43;;;;;;;36.78;32.97;;;25.40;46.90;;;;;;5073488;28;20510;-57
2021/01/28 00:23:10;;;;;;;38.88;34.70;;;25.40;46.90;;;;;;5073327;28;20033;-57
2021/01/28 00:25:37;;;;;;;41.47;37.20;;;25.40;46.90;;;;;;5073459;28;20029;-57
2021/01/28 00:28:06;;;;;;;35.47;31.95;;;25.40;46.90;;;;;;5072617;28;20526;-57
2021/01/28 00:30:40;;;;;;;31.73;28.73;;;25.40;47.00;;;;;;5054607;28;20032;-57
2021/01/28 00:33:08;;;;;;;29.73;26.63;;;25.30;47.00;;;;;;5072527;28;20028;-57
2021/01/28 00:35:43;;;;;;;27.42;24.63;;;25.40;47.00;;;;;;5072818;28;20032;-57
2021/01/28 00:38:18;;;;;;;25.85;23.15;;;25.40;47.00;;;;;;5072248;28;20036;-57
2021/01/28 00:40:44;;;;;;;24.52;22.13;;;25.40;47.00;;;;;;5040833;28;20061;-57
2021/01/28 00:43:11;;;;;;;24.80;22.50;;;25.40;47.00;;;;;;5061387;28;20512;-58
2021/01/28 00:45:39;;;;;;;21.17;19.02;;;25.30;46.90;;;;;;5055811;28;20020;-57
2021/01/28 00:48:06;;;;;;;22.20;20.02;;;25.30;47.00;;;;;;5073095;28;20021;-57
2021/01/28 00:50:33;;;;;;;19.52;17.52;;;25.40;47.10;;;;;;5073322;28;20125;-58
2021/01/28 00:53:00;;;;;;;19.73;17.63;;;25.30;47.00;;;;;;5072525;28;20480;-58
2021/01/28 00:55:26;;;;;;;18.15;16.38;;;25.30;47.00;;;;;;5043725;28;20048;-57
2021/01/28 00:57:58;;;;;;;17.98;16.17;;;25.30;47.00;;;;;;5052594;28;20074;-57
2021/01/28 01:00:32;;;;;;;18.58;15.95;;;25.30;47.10;;;;;;5054041;28;20082;-57
2021/01/28 01:02:59;;;;;;;18.40;16.55;;;25.30;47.10;;;;;;5038773;28;20032;-58
2021/01/28 01:05:28;;;;;;;15.50;14.02;;;25.30;47.10;;;;;;5051410;28;20029;-57
2021/01/28 01:07:55;;;;;;;;;;;25.30;47.10;;;;;;5051787;28;20105;-57
2021/01/28 01:10:36;;;;;;;15.48;13.77;;;25.30;47.10;;;;;;5073538;28;19928;-57
2021/01/28 01:13:05;;;;;;;13.10;11.88;;;25.30;46.90;;;;;;5073187;28;20032;-57
2021/01/28 01:15:31;;;;;;;14.05;12.68;;;25.30;46.90;;;;;;5073349;28;20098;-57
2021/01/28 01:17:57;;;;;;;13.13;11.80;;;25.30;46.90;;;;;;5072383;28;20032;-57
2021/01/28 01:20:29;;;;;;;12.20;11.00;;;25.30;47.00;;;;;;5052957;28;20131;-57
2021/01/28 01:22:56;;;;;;;13.90;10.27;;;25.30;47.00;;;;;;5051484;28;20432;-57
2021/01/28 01:25:23;;;;;;;11.82;10.23;;;25.30;47.10;;;;;;5051376;28;20032;-57
2021/01/28 01:27:49;;;;;;;10.07;9.07;;;25.20;47.00;;;;;;5034831;28;20127;-57
2021/01/28 01:30:51;;;;;;;10.07;9.02;;;25.20;47.00;;;;;;5064270;28;20035;-57
2021/01/28 01:33:17;;;;;;;9.10;8.30;;;25.30;47.10;;;;;;5051012;28;20025;-57
2021/01/28 01:36:03;;;;;;;9.73;8.73;;;25.20;47.00;;;;;;5054463;28;20029;-57
2021/01/28 01:38:31;;;;;;;8.90;7.70;;;25.20;47.10;;;;;;5038905;28;20093;-57
2021/01/28 01:40:59;;;;;;;8.55;7.28;;;25.20;47.10;;;;;;5054639;28;20811;-57
2021/01/28 01:43:26;;;;;;;8.10;7.30;;;25.20;47.10;;;;;;5073068;28;20037;-57
2021/01/28 01:45:59;;;;;;;7.70;6.88;;;25.20;47.10;;;;;;5054410;28;20039;-57
2021/01/28 01:48:38;;;;;;;6.85;6.15;;;25.20;47.10;;;;;;5034651;28;20037;-57
2021/01/28 01:51:13;;;;;;;6.95;6.25;;;25.20;47.10;;;;;;5031528;28;20048;-57
2021/01/28 01:54:01;;;;;;;7.82;5.80;;;25.20;47.10;;;;;;5041620;28;20036;-57
2021/01/28 01:56:44;;;;;;;6.18;5.43;;;25.20;47.10;;;;;;5051323;28;20048;-57
2021/01/28 01:59:19;;;;;;;5.30;4.80;;;25.20;47.10;;;;;;5050458;28;20041;-57
2021/01/28 02:02:11;;;;;;;5.97;5.40;;;25.20;47.20;;;;;;5020412;28;20112;-57
2021/01/28 02:05:21;;;;;;;5.03;4.30;;;25.20;47.10;;;;;;5030369;28;20045;-58
2021/01/28 02:07:51;;;;;;;4.60;4.20;;;25.20;47.10;;;;;;5049429;28;20095;-57
2021/01/28 02:10:52;;;;;;;5.18;4.38;;;25.20;47.10;;;;;;5030303;28;20085;-57
2021/01/28 02:13:46;;;;;;;5.28;4.65;;;25.10;47.00;;;;;;5002988;28;20068;-58
2021/01/28 02:16:56;;;;;;;5.10;4.60;;;25.10;47.00;;;;;;5041457;28;20037;-57
2021/01/28 02:20:03;;;;;;;5.00;4.05;;;25.10;47.00;;;;;;5033829;28;20149;-57
2021/01/28 02:22:58;;;;;;;5.15;4.00;;;25.10;47.00;;;;;;5049310;28;20083;-63
2021/01/28 02:25:26;;;;;;;4.32;3.80;;;25.10;47.00;;;;;;5034003;28;20160;-63
2021/01/28 02:28:01;;;;;;;4.57;3.83;;;25.10;47.00;;;;;;5050385;28;20037;-63
2021/01/28 02:30:38;;;;;;;4.55;4.15;;;25.10;47.00;;;;;;5038284;28;20029;-63
2021/01/28 02:33:10;;;;;;;4.10;3.58;;;25.10;47.00;;;;;;5053920;28;20025;-63
2021/01/28 02:35:52;;;;;;;5.07;3.55;;;25.10;47.00;;;;;;5053449;28;20075;-63
2021/01/28 02:38:21;;;;;;;3.97;3.63;;;25.10;47.00;;;;;;5053155;28;20033;-63
2021/01/28 02:40:52;;;;;;;4.57;4.13;;;25.10;47.00;;;;;;5053132;28;20402;-63
2021/01/28 02:43:44;;;;;;;4.55;3.97;;;25.00;46.90;;;;;;5047020;28;20045;-63
2021/01/28 02:46:30;;;;;;;4.47;4.00;;;25.00;46.90;;;;;;5033504;28;20136;-63
2021/01/28 02:49:04;;;;;;;5.65;4.43;;;25.00;46.90;;;;;;5049479;28;20035;-63
2021/01/28 02:51:42;;;;;;;5.03;3.97;;;25.00;46.90;;;;;;5056793;28;20857;-63
2021/01/28 02:54:16;;;;;;;4.10;3.75;;;25.00;46.90;;;;;;5055759;28;20063;-63
2021/01/28 02:56:43;;;;;;;4.68;4.28;;;25.00;46.90;;;;;;5052734;28;20025;-63
2021/01/28 02:59:11;;;;;;;5.03;4.53;;;25.00;46.90;;;;;;5044229;28;20028;-63
2021/01/28 03:01:42;;;;;;;4.03;3.65;;;25.00;46.90;;;;;;5074264;28;20037;-63
2021/01/28 03:04:10;;;;;;;3.95;3.65;;;25.00;46.90;;;;;;5039560;28;20389;-63
2021/01/28 03:06:47;;;;;;;4.03;3.50;;;25.00;46.90;;;;;;5054066;28;20124;-63
2021/01/28 03:09:13;;;;;;;4.73;3.57;;;25.00;46.90;;;;;;5056479;28;20044;-63
2021/01/28 03:12:06;;;;;;;4.10;3.67;;;24.90;46.90;;;;;;5060570;28;20040;-63
2021/01/28 03:14:53;;;;;;;4.05;3.67;;;25.00;46.90;;;;;;5059681;28;20104;-63
2021/01/28 03:17:19;;;;;;;3.85;3.50;;;25.00;46.90;;;;;;5056315;28;20213;-63
2021/01/28 03:19:53;;;;;;;4.20;3.80;;;24.90;46.90;;;;;;5055846;28;20397;-63
2021/01/28 03:22:21;;;;;;;4.82;3.42;;;24.90;46.80;;;;;;5038795;28;20035;-63
2021/01/28 03:24:55;;;;;;;3.60;3.17;;;24.90;46.80;;;;;;5056190;28;20139;-63
2021/01/28 03:27:24;;;;;;;3.67;3.38;;;24.90;46.80;;;;;;5052747;28;20029;-63
2021/01/28 03:29:55;;;;;;;4.03;3.70;;;24.90;46.90;;;;;;5035515;28;20566;-63
2021/01/28 03:32:21;;;;;;;3.70;3.40;;;24.90;46.90;;;;;;5035037;28;20116;-63
2021/01/28 03:34:50;;;;;;;4.05;3.60;;;24.90;46.90;;;;;;5051071;28;20035;-63
2021/01/28 03:37:18;;;;;;;4.10;3.50;;;24.90;46.90;;;;;;5036376;28;20381;-63
2021/01/28 03:39:57;;;;;;;3.40;3.10;;;24.90;47.00;;;;;;5051772;28;20112;-63
2021/01/28 03:42:23;;;;;;;4.30;3.85;;;24.80;46.90;;;;;;5049883;28;20020;-63
2021/01/28 03:44:50;;;;;;;3.60;3.28;;;24.90;47.00;;;;;;5055702;28;20032;-63
2021/01/28 03:47:16;;;;;;;3.45;3.15;;;24.80;46.90;;;;;;5055419;28;20044;-63
2021/01/28 03:50:05;;;;;;;2.75;2.55;;;24.80;46.90;;;;;;5055788;28;20482;-63
2021/01/28 03:52:31;;;;;;;3.40;3.10;;;24.80;47.00;;;;;;5035685;28;20048;-63
2021/01/28 03:55:26;;;;;;;3.55;3.22;;;24.80;46.90;;;;;;5042007;28;20024;-63
2021/01/28 03:57:54;;;;;;;4.43;3.33;;;24.70;46.90;;;;;;5055473;28;20129;-63
2021/01/28 04:00:32;;;;;;;3.63;3.30;;;24.70;47.00;;;;;;5054546;28;20100;-63
2021/01/28 04:03:06;;;;;;;3.92;3.53;;;24.70;47.00;;;;;;5055357;28;20110;-63
2021/01/28 04:05:33;;;;;;;3.50;3.20;;;24.70;47.00;;;;;;5073575;28;20814;-63
2021/01/28 04:08:31;;;;;;;3.58;3.28;;;24.70;47.00;;;;;;4981469;28;20051;-63
2021/01/28 04:11:35;;;;;;;3.50;3.20;;;24.70;47.00;;;;;;4914796;28;20040;-63
2021/01/28 04:14:14;;;;;;;3.80;3.40;;;24.70;46.90;;;;;;4914334;29;20024;-63
2021/01/28 04:16:40;;;;;;;3.53;3.22;;;24.70;47.00;;;;;;4913467;29;20050;-63
2021/01/28 04:19:06;;;;;;;3.50;3.20;;;24.70;46.90;;;;;;4911986;29;20047;-63
2021/01/28 04:21:42;;;;;;;3.45;3.15;;;24.70;46.90;;;;;;4895610;29;20104;-63
2021/01/28 04:24:09;;;;;;;4.15;3.38;;;24.70;47.00;;;;;;4911863;29;20135;-63
2021/01/28 04:26:53;;;;;;;5.03;3.15;;;24.60;47.00;;;;;;4898733;29;20041;-63
2021/01/28 04:29:32;;;;;;;3.40;3.10;;;24.60;46.90;;;;;;4912943;29;20050;-63
2021/01/28 04:32:28;;;;;;;3.55;3.13;;;24.70;47.00;;;;;;4906318;29;20051;-63
2021/01/28 04:35:23;;;;;;;4.45;3.22;;;24.60;46.90;;;;;;4871203;29;20051;-63
2021/01/28 04:37:51;;;;;;;4.68;3.80;;;24.60;46.90;;;;;;4901622;29;20040;-63
2021/01/28 04:40:34;;;;;;;3.50;3.20;;;24.60;47.00;;;;;;4913644;29;20036;-63
2021/01/28 04:43:25;;;;;;;3.70;2.90;;;24.60;47.00;;;;;;4959150;28;20133;-63
2021/01/28 04:46:14;;;;;;;3.30;2.92;;;24.50;47.00;;;;;;5054333;28;20120;-63
2021/01/28 04:48:48;;;;;;;3.30;3.00;;;24.60;47.00;;;;;;5053766;28;20028;-63
2021/01/28 04:51:32;;;;;;;3.63;3.08;;;24.50;47.00;;;;;;5054437;28;20040;-63
2021/01/28 04:54:20;;;;;;;3.25;2.95;;;24.50;47.00;;;;;;5053792;28;20068;-63
2021/01/28 04:56:47;;;;;;;4.88;3.75;;;24.50;47.10;;;;;;5053130;28;20027;-63
2021/01/28 04:59:47;;;;;;;3.75;3.45;;;24.50;47.10;;;;;;5053778;28;20028;-63
2021/01/28 05:02:20;;;;;;;3.85;3.47;;;24.50;47.20;;;;;;5050232;28;20029;-63
2021/01/28 05:05:18;;;;;;;3.33;3.03;;;24.50;47.10;;;;;;5053043;28;20139;-63
2021/01/28 05:07:55;;;;;;;4.75;3.10;;;24.50;47.10;;;;;;5071719;28;20489;-63
2021/01/28 05:10:51;;;;;;;3.65;3.30;;;24.50;47.10;;;;;;5039269;28;20037;-63
2021/01/28 05:13:35;;;;;;;4.00;3.58;;;24.50;47.10;;;;;;5052281;28;20076;-63
2021/01/28 05:16:39;;;;;;;3.08;2.80;;;24.50;47.10;;;;;;5027370;28;20044;-63
2021/01/28 05:19:48;;;;;;;3.20;2.90;;;24.50;47.10;;;;;;5067444;28;20047;-63
2021/01/28 05:22:38;;;;;;;3.53;3.17;;;24.40;47.00;;;;;;5064303;28;20098;-63
2021/01/28 05:25:27;;;;;;;3.50;3.20;;;24.40;47.00;;;;;;5070860;28;20063;-63
2021/01/28 05:28:33;;;;;;;3.53;3.13;;;24.40;47.00;;;;;;5071082;28;20032;-63
2021/01/28 05:31:25;;;;;;;3.75;3.13;;;24.40;47.00;;;;;;5068988;28;20097;-63
2021/01/28 05:34:09;;;;;;;4.22;3.05;;;24.40;47.00;;;;;;5036275;28;20033;-63
2021/01/28 05:37:03;;;;;;;3.25;2.95;;;24.40;47.00;;;;;;5053102;28;20029;-63
2021/01/28 05:39:47;;;;;;;4.22;2.97;;;24.40;47.00;;;;;;5071224;28;20144;-63
2021/01/28 05:42:29;;;;;;;4.47;2.95;;;24.40;47.00;;;;;;5053255;28;20064;-63
2021/01/28 05:45:24;;;;;;;3.05;2.75;;;24.40;47.00;;;;;;5053306;28;20040;-63
2021/01/28 05:48:30;;;;;;;3.67;3.08;;;24.30;47.00;;;;;;5071013;28;20052;-63
2021/01/28 05:51:22;;;;;;;5.22;2.88;;;24.30;47.00;;;;;;5027063;28;20539;-63
2021/01/28 05:54:06;;;;;;;3.53;3.00;;;24.30;47.00;;;;;;5056354;28;20024;-63
2021/01/28 05:56:58;;;;;;;6.03;2.83;;;24.40;47.00;;;;;;5060404;28;20063;-63
2021/01/28 06:00:11;;;;;;;3.35;3.00;;;24.30;47.00;;;;;;5065752;28;20052;-63
2021/01/28 06:02:49;;;;;;;3.65;2.78;;;24.30;47.00;;;;;;5025713;28;20040;-63
2021/01/28 06:06:02;;;;;;;4.20;3.65;;;24.30;46.90;;;;;;5041504;28;20090;-63
2021/01/28 06:09:06;;;;;;;3.95;2.85;;;24.30;46.90;;;;;;5051571;28;20032;-63
2021/01/28 06:11:39;;;;;;;3.97;3.13;;;24.30;46.90;;;;;;5059997;28;20033;-63
2021/01/28 06:14:27;;;;;;;3.80;3.40;;;24.30;46.80;;;;;;5060116;28;20052;-63
2021/01/28 06:17:35;;;;;;;5.15;3.70;;;24.30;46.80;;;;;;5040008;28;20032;-63
2021/01/28 06:21:08;;;;;;;;;;;24.30;46.80;;;;;;4999486;28;20181;-63
2021/01/28 06:23:54;;;;;;;3.80;3.00;;;24.30;46.90;;;;;;4932655;28;19909;-63
2021/01/28 06:26:40;;;;;;;3.50;3.20;;;24.40;46.50;;;;;;4980141;28;20376;-63
2021/01/28 06:29:40;;;;;;;2.92;2.72;;;24.40;46.60;;;;;;4999186;28;20322;-63
2021/01/28 06:32:21;;;;;;;4.03;3.60;;;24.30;46.50;;;;;;4997166;28;20156;-63
2021/01/28 06:35:19;;;;;;;5.03;3.13;;;24.30;46.60;;;;;;5014986;28;20494;-63
2021/01/28 06:38:17;;;;;;;4.25;3.85;;;24.30;46.60;;;;;;5001373;28;20500;-63
2021/01/28 06:41:16;;;;;;;3.88;3.47;;;24.30;46.60;;;;;;5013678;28;20037;-62
2021/01/28 06:44:12;;;;;;;4.18;3.50;;;24.20;46.50;;;;;;5004082;28;20111;-63
2021/01/28 06:47:30;;;;;;;3.58;3.28;;;24.20;46.50;;;;;;4948809;29;20515;-63
2021/01/28 06:50:24;;;;;;;3.22;2.92;;;24.20;46.60;;;;;;4957087;28;20393;-63
2021/01/28 06:53:18;;;;;;;4.43;3.80;;;24.10;46.50;;;;;;4998414;28;20046;-60
2021/01/28 06:56:21;;;;;;;;;;;24.00;46.30;;;;;;4934193;29;20405;-60
2021/01/28 06:59:28;;;;;;;4.00;3.42;;;24.00;46.40;;;;;;4918387;29;20346;-60
2021/01/28 07:02:26;;;;;;;5.78;3.50;;;23.90;46.30;;;;;;4929745;29;20065;-60
2021/01/28 07:05:10;;;;;;;4.80;3.95;;;23.70;46.40;;;;;;4901599;29;20543;-60
2021/01/28 07:07:53;;;;;;;4.03;3.42;;;23.50;46.40;;;;;;4909279;29;20054;-60
2021/01/28 07:10:40;;;;;;;6.88;3.80;;;23.40;46.60;;;;;;4927415;29;20031;-60
2021/01/28 07:13:37;;;;;;;4.80;3.42;;;23.20;46.70;;;;;;4910104;29;20048;-61
2021/01/28 07:16:35;;;;;;;3.90;3.38;;;23.10;47.10;;;;;;4904017;29;20394;-61
2021/01/28 07:19:17;;;;;;;4.43;3.88;;;23.00;47.50;;;;;;4930968;29;20112;-61
2021/01/28 07:21:48;;;;;;;5.22;4.00;;;22.90;47.70;;;;;;4942403;28;20105;-61
2021/01/28 07:24:24;;;;;;;4.70;3.80;;;22.90;47.90;;;;;;4972469;28;20385;-61
2021/01/28 07:26:50;;;;;;;4.40;3.90;;;22.90;48.00;;;;;;4972067;28;20086;-61
2021/01/28 07:29:31;;;;;;;5.82;3.88;;;22.90;48.00;;;;;;4956434;28;20038;-61
2021/01/28 07:31:58;;;;;;;6.25;4.60;;;23.00;48.10;;;;;;4993271;28;20563;-61
2021/01/28 07:34:35;;;;;;;6.85;4.75;;;23.00;48.10;;;;;;5036159;28;20086;-61
2021/01/28 07:37:22;;;;;;;5.28;4.60;;;23.00;48.10;;;;;;5036061;28;20090;-61
2021/01/28 07:40:07;;;;;;;14.60;11.02;;;23.00;48.00;;;;;;5054547;28;20379;-61
2021/01/28 07:43:04;;;;;;;13.68;12.15;;;23.10;47.80;;;;;;5054018;28;20048;-61
2021/01/28 07:45:38;;;;;;;10.68;8.25;;;23.10;47.50;;;;;;5054116;28;20059;-61
2021/01/28 07:48:40;;;;;;;9.52;6.93;;;23.10;47.30;;;;;;5037879;28;20033;-61
2021/01/28 07:51:31;;;;;;;8.20;6.40;;;23.10;47.30;;;;;;5051739;28;20134;-61
2021/01/28 07:53:59;;;;;;;6.82;4.63;;;23.00;47.20;;;;;;5054045;28;20029;-61
2021/01/28 07:56:40;;;;;;;6.07;4.70;;;23.00;47.20;;;;;;5053737;28;20485;-61
2021/01/28 07:59:14;;;;;;;7.72;4.70;;;23.00;47.20;;;;;;5035790;28;20037;-62
2021/01/28 08:01:41;;;;;;;6.57;5.00;;;23.00;47.20;;;;;;5053829;28;20482;-61
2021/01/28 08:04:30;;;;;;;6.75;5.00;;;23.00;47.10;;;;;;5053759;28;20130;-61
2021/01/28 08:06:59;;;;;;;7.97;6.28;;;23.00;47.10;;;;;;5053403;28;20104;-61
2021/01/28 08:09:25;;;;;;;36.20;31.83;;;23.00;47.10;;;;;;5053733;28;20036;-67
2021/01/28 08:11:54;;;;;;;39.13;34.65;;;22.90;47.10;;;;;;5052821;28;20100;-65
2021/01/28 08:14:23;;;;;;;38.35;31.15;;;22.80;47.20;;;;;;5052871;28;20048;-66
2021/01/28 08:16:55;;;;;;;19.98;17.85;;;22.80;47.50;;;;;;5052695;28;20565;-64
2021/01/28 08:19:26;;;;;;;67.70;55.53;;;22.80;47.50;;;;;;5036387;28;20044;-63
2021/01/28 08:22:11;;;;;;;61.85;54.60;;;22.70;47.50;;;;;;5053240;28;20051;-66
2021/01/28 08:24:39;;;;;;;45.83;37.90;;;22.70;47.60;;;;;;5052758;28;20029;-66
2021/01/28 08:27:27;;;;;;;35.90;27.00;;;22.70;47.70;;;;;;5034642;28;20017;-66
2021/01/28 08:30:29;;;;;;;19.50;17.00;;;22.60;47.90;;;;;;5052612;28;20025;-66
2021/01/28 08:32:58;;;;;;;15.60;13.88;;;22.60;48.00;;;;;;4936536;29;20110;-65
2021/01/28 08:35:52;;;;;;;11.45;9.27;;;22.60;48.10;;;;;;4952518;29;20073;-66
2021/01/28 08:38:24;;;;;;;9.30;6.03;;;22.60;48.20;;;;;;4966595;28;21103;-60
2021/01/28 08:41:20;;;;;;;10.73;9.13;;;22.60;48.20;;;;;;4972448;28;20043;-64
2021/01/28 08:43:57;;;;;;;16.92;12.93;;;22.60;48.20;;;;;;4963915;28;20085;-64
2021/01/28 08:46:23;;;;;;;10.30;7.80;;;22.60;48.10;;;;;;4971288;28;20114;-64
2021/01/28 08:48:49;;;;;;;11.80;8.80;;;22.60;48.20;;;;;;4954768;28;20027;-60
2021/01/28 08:51:23;;;;;;;14.80;8.02;;;22.60;48.30;;;;;;4971121;28;20041;-59
2021/01/28 08:54:02;;;;;;;8.02;5.30;;;22.60;48.40;;;;;;4971242;28;20039;-60
2021/01/28 08:56:39;;;;;;;9.27;5.00;;;22.50;48.30;;;;;;4971568;28;20594;-60
2021/01/28 08:59:11;;;;;;;8.32;5.13;;;22.50;48.40;;;;;;4971524;28;20035;-57
2021/01/28 09:01:49;;;;;;;123.80;103.65;;;22.50;48.50;;;;;;4971182;28;20038;-67
2021/01/28 09:04:20;;;;;;;37.50;32.22;;;22.50;48.50;;;;;;4970881;28;20042;-66
2021/01/28 09:06:48;;;;;;;14.95;10.98;;;22.50;48.40;;;;;;5017324;28;20032;-63
2021/01/28 09:09:17;;;;;;;8.52;6.38;;;22.50;48.50;;;;;;5070847;28;20099;-64
2021/01/28 09:11:43;;;;;;;10.07;6.15;;;22.50;48.60;;;;;;5071532;28;20043;-65
2021/01/28 09:14:30;;;;;;;39.50;33.00;;;22.50;48.70;;;;;;5053574;28;20032;-64
2021/01/28 09:17:18;;;;;;;18.30;16.20;;;22.40;48.70;;;;;;5071309;28;20028;-64
2021/01/28 09:19:54;;;;;;;17.23;11.50;;;22.50;48.70;;;;;;5039927;28;20044;-64
2021/01/28 09:22:33;;;;;;;10.30;8.45;;;22.50;48.80;;;;;;5034158;28;20037;-63
2021/01/28 09:25:03;;;;;;;12.82;7.63;;;22.50;48.90;;;;;;5033720;28;20036;-63
2021/01/28 09:27:37;;;;;;;14.70;12.85;;;22.50;48.90;;;;;;5046859;28;20048;-63
2021/01/28 09:30:35;;;;;;;17.95;11.38;;;22.50;48.90;;;;;;5070914;28;20028;-63
2021/01/28 09:33:34;;;;;;;11.23;8.25;;;22.50;49.00;;;;;;5067203;28;20063;-63
2021/01/28 09:36:06;;;;;;;10.60;5.97;;;22.60;49.10;;;;;;5071219;28;20031;-62
2021/01/28 09:38:33;;;;;;;6.00;5.40;;;22.60;49.30;;;;;;5071358;28;20040;-62
2021/01/28 09:41:24;;;;;;;7.03;4.97;;;22.60;49.10;;;;;;5071174;28;20051;-62
2021/01/28 09:43:51;;;;;;;5.43;4.45;;;22.60;49.20;;;;;;5070928;28;20051;-62
2021/01/28 09:46:19;;;;;;;9.13;5.50;;;22.60;49.10;;;;;;5070959;28;20029;-62
2021/01/28 09:48:47;;;;;;;23.63;17.90;;;22.60;49.20;;;;;;5070946;28;20108;-62
2021/01/28 09:51:19;;;;;;;46.08;41.22;;;22.60;49.10;;;;;;5070949;28;20485;-62
2021/01/28 09:54:20;;;;;;;23.63;16.67;;;22.60;49.10;;;;;;5052959;28;20406;-62
2021/01/28 09:56:45;;;;;;;;;;;22.60;49.20;;;;;;5071630;28;20527;-62
2021/01/28 09:59:14;;;;;;;6.18;5.40;;;22.70;49.20;;;;;;5036232;28;19912;-63
2021/01/28 10:01:42;;;;;;;8.88;4.93;;;22.80;49.00;;;;;;5024220;28;20048;-62
2021/01/28 10:04:09;;;;;;;19.17;15.90;;;22.80;48.90;;;;;;5034001;28;20115;-62
2021/01/28 10:06:35;;;;;;;21.67;19.38;;;22.90;48.90;;;;;;5029915;28;20084;-64
2021/01/28 10:09:01;;;;;;;24.33;21.83;;;23.00;48.90;;;;;;5030995;28;20038;-63
2021/01/28 10:11:27;;;;;;;22.60;19.65;;;23.00;49.40;;;;;;5031773;28;20025;-63
2021/01/28 10:13:53;;;;;;;18.35;16.33;;;23.00;48.70;;;;;;5013190;28;20034;-64
2021/01/28 10:16:19;;;;;;;15.73;12.95;;;23.10;48.70;;;;;;5031431;28;20033;-63
2021/01/28 10:18:45;;;;;;;40.10;35.78;;;23.20;48.60;;;;;;5013252;28;20032;-63
2021/01/28 10:21:12;;;;;;;27.48;24.05;;;23.20;48.40;;;;;;5031211;28;20037;-63
2021/01/28 10:23:38;;;;;;;18.38;16.02;;;23.30;48.20;;;;;;5030751;28;20025;-64
2021/01/28 10:26:04;;;;;;;10.93;8.80;;;23.40;48.20;;;;;;5039169;28;20040;-63
2021/01/28 10:28:30;;;;;;;9.40;8.27;;;23.40;48.00;;;;;;5050383;28;20486;-64
2021/01/28 10:30:57;;;;;;;7.35;5.78;;;23.50;47.80;;;;;;5050365;28;20024;-64
2021/01/28 10:33:28;;;;;;;7.70;6.82;;;23.60;47.80;;;;;;5050532;28;20025;-63
2021/01/28 10:35:54;;;;;;;38.53;29.77;;;23.60;47.70;;;;;;5051103;28;20033;-65
2021/01/28 10:38:20;;;;;;;32.42;25.25;;;23.70;47.80;;;;;;5033691;28;20379;-65
2021/01/28 10:40:46;;;;;;;16.67;14.95;;;23.90;47.80;;;;;;5054288;28;20127;-66
2021/01/28 10:43:12;;;;;;;9.43;8.00;;;23.90;47.70;;;;;;5055451;28;20112;-68
2021/01/28 10:45:40;;;;;;;6.97;4.57;;;24.00;47.70;;;;;;5039041;28;20167;-68
2021/01/28 10:48:08;;;;;;;4.55;2.83;;;24.20;47.50;;;;;;5056542;28;20470;-68
2021/01/28 10:50:36;;;;;;;5.05;3.00;;;24.20;47.20;;;;;;5074659;28;20502;-68
2021/01/28 10:53:03;;;;;;;4.13;2.55;;;24.40;47.00;;;;;;5056755;28;20121;-68
2021/01/28 10:55:31;;;;;;;2.65;2.35;;;24.50;46.90;;;;;;5074884;28;20045;-68
2021/01/28 10:57:57;;;;;;;10.15;5.13;;;24.70;46.70;;;;;;5056218;28;20032;-68
2021/01/28 11:00:24;;;;;;;2.30;1.88;;;24.90;46.60;;;;;;5074773;28;20042;-68
2021/01/28 11:02:51;;;;;;;1.58;1.45;;;25.10;46.30;;;;;;5074681;28;20043;-67
2021/01/28 11:05:36;;;;;;;2.92;1.58;;;25.30;46.20;;;;;;5056659;28;20427;-68
2021/01/28 11:08:05;;;;;;;2.40;1.52;;;25.50;46.10;;;;;;5074852;28;20033;-67
2021/01/28 11:10:31;;;;;;;2.72;1.50;;;25.80;45.40;;;;;;5075150;28;20164;-66
2021/01/28 11:12:59;;;;;;;3.42;1.67;;;26.20;45.40;;;;;;5056453;28;20538;-66
2021/01/28 11:15:28;;;;;;;2.03;1.40;;;26.60;44.90;;;;;;5056883;28;20111;-67
2021/01/28 11:17:54;;;;;;;4.70;2.17;;;27.20;43.80;;;;;;5074054;28;20487;-63
2021/01/28 11:20:20;;;;;;;2.53;1.35;;;27.70;43.20;;;;;;5073778;28;20024;-63
2021/01/28 11:22:46;;;;;;;1.98;1.63;;;28.30;42.20;;;;;;5056062;28;20028;-63
2021/01/28 11:25:16;;;;;;;2.10;1.70;;;28.90;41.30;;;;;;5055474;28;20441;-62
2021/01/28 11:27:42;;;;;;;38.63;34.65;;;29.40;39.50;;;;;;5055752;28;20033;-59
2021/01/28 11:30:11;;;;;;;50.42;45.53;;;30.00;39.10;;;;;;5055979;28;20178;-62
2021/01/28 11:32:37;;;;;;;5.80;5.30;;;30.40;37.90;;;;;;5056334;28;20142;-61
2021/01/28 11:35:04;;;;;;;1.90;1.58;;;30.80;37.30;;;;;;5073524;28;20020;-62
2021/01/28 11:37:30;;;;;;;1.45;1.35;;;31.30;36.60;;;;;;5064239;28;20027;-64
2021/01/28 11:39:56;;;;;;;1.25;1.10;;;31.60;36.10;;;;;;5038981;28;20041;-65
2021/01/28 11:42:22;;;;;;;1.48;1.30;;;31.80;35.50;;;;;;5065883;28;20037;-65
2021/01/28 11:44:48;;;;;;;1.50;1.20;;;32.00;35.10;;;;;;5067511;28;20029;-65
2021/01/28 11:47:14;;;;;;;1.20;1.08;;;32.10;35.00;;;;;;5041826;28;20056;-64
2021/01/28 11:49:41;;;;;;;2.53;1.25;;;32.20;34.50;;;;;;5059095;28;20129;-65
2021/01/28 11:52:07;;;;;;;1.13;1.02;;;32.20;34.30;;;;;;5052572;28;20021;-65
2021/01/28 11:54:33;;;;;;;1.25;0.90;;;32.20;34.00;;;;;;5071579;28;20032;-65
2021/01/28 11:56:59;;;;;;;1.23;1.10;;;32.10;33.80;;;;;;5073114;28;20054;-65
2021/01/28 11:59:25;;;;;;;1.48;1.00;;;32.00;34.20;;;;;;5072733;28;20044;-64
2021/01/28 12:01:51;;;;;;;1.00;0.90;;;31.80;34.10;;;;;;5072712;28;20033;-65
2021/01/28 12:04:17;;;;;;;2.55;1.20;;;31.60;34.40;;;;;;5072903;28;20474;-64
2021/01/28 12:06:43;;;;;;;2.10;1.35;;;31.40;34.60;;;;;;5053853;28;20033;-64
2021/01/28 12:09:10;;;;;;;1.60;1.35;;;31.20;34.70;;;;;;5072037;28;20032;-65
2021/01/28 12:11:36;;;;;;;2.42;0.98;;;31.10;34.80;;;;;;5073492;28;20043;-62
2021/01/28 12:14:02;;;;;;;1.25;1.00;;;30.90;35.00;;;;;;5039245;28;20040;-66
2021/01/28 12:16:28;;;;;;;5.65;1.52;;;30.80;35.20;;;;;;5074008;28;20020;-66
2021/01/28 12:18:55;;;;;;;1.73;1.40;;;30.60;35.40;;;;;;5075944;28;20031;-65
2021/01/28 12:21:21;;;;;;;2.17;1.60;;;30.40;35.50;;;;;;5056559;28;20028;-59
2021/01/28 12:23:47;;;;;;;6.32;1.35;;;30.20;35.60;;;;;;5052680;28;20470;-59
2021/01/28 12:26:13;;;;;;;5.53;1.63;;;30.10;35.80;;;;;;5070776;28;20043;-59
2021/01/28 12:28:39;;;;;;;2.42;1.50;;;30.00;36.00;;;;;;5069902;28;20033;-59
2021/01/28 12:31:05;;;;;;;6.43;1.85;;;29.80;36.10;;;;;;5036028;28;20139;-58
2021/01/28 12:33:31;;;;;;;7.75;2.00;;;29.70;36.30;;;;;;5052499;28;20027;-58
2021/01/28 12:35:57;;;;;;;7.82;2.28;;;29.60;36.60;;;;;;5052010;28;20328;-59
2021/01/28 12:38:23;;;;;;;10.20;2.35;;;29.50;36.80;;;;;;5032978;28;20059;-59
2021/01/28 12:40:49;;;;;;;11.55;2.00;;;29.40;37.00;;;;;;5049631;28;20152;-59
2021/01/28 12:43:15;;;;;;;8.63;2.17;;;29.30;37.20;;;;;;5065851;28;20463;-59
2021/01/28 12:45:42;;;;;;;6.53;1.67;;;29.20;37.50;;;;;;5054041;28;20040;-61
2021/01/28 12:48:08;;;;;;;7.65;1.88;;;29.10;37.60;;;;;;5071841;28;20024;-59
2021/01/28 12:50:34;;;;;;;5.22;1.75;;;29.00;37.80;;;;;;5034315;28;20051;-59
2021/01/28 12:53:00;;;;;;;4.20;1.73;;;29.00;37.90;;;;;;5053407;28;20570;-60
2021/01/28 12:55:26;;;;;;;3.47;1.60;;;28.90;38.10;;;;;;5051467;28;20040;-59
2021/01/28 12:57:52;;;;;;;2.85;1.70;;;28.90;38.20;;;;;;5051287;28;20480;-60
2021/01/28 13:00:21;;;;;;;3.72;2.05;;;28.80;38.30;;;;;;5050914;28;20071;-60
2021/01/28 13:02:47;;;;;;;3.58;1.63;;;28.80;38.50;;;;;;5051291;28;20071;-59
2021/01/28 13:05:13;;;;;;;3.25;1.52;;;28.80;38.60;;;;;;5052648;28;20029;-60
2021/01/28 13:07:39;;;;;;;2.92;2.53;;;28.70;38.70;;;;;;5050829;28;20036;-59
2021/01/28 13:10:06;;;;;;;5.25;3.30;;;28.70;38.80;;;;;;5051492;28;20029;-60
2021/01/28 13:12:33;;;;;;;3.42;2.35;;;28.70;39.00;;;;;;5034137;28;20029;-60
2021/01/28 13:14:59;;;;;;;4.95;2.58;;;28.70;39.10;;;;;;5050939;28;20096;-60
2021/01/28 13:17:25;;;;;;;4.55;2.50;;;28.70;39.20;;;;;;5051941;28;20105;-59
2021/01/28 13:19:52;;;;;;;8.32;2.38;;;28.70;39.30;;;;;;5051850;28;20020;-60
2021/01/28 13:22:18;;;;;;;5.15;2.80;;;28.80;39.50;;;;;;5030794;28;20091;-60
2021/01/28 13:24:44;;;;;;;8.10;3.13;;;28.80;39.50;;;;;;5051007;28;20029;-59
2021/01/28 13:27:10;;;;;;;3.85;2.10;;;28.80;39.60;;;;;;5050758;28;20040;-59
2021/01/28 13:29:37;;;;;;;2.75;2.40;;;28.80;39.60;;;;;;5044246;28;20017;-60